sensor_id;sensor_type;location;lat;lon;timestamp;P1;durP1;ratioP1;P2;durP2;ratioP2
20458;SDS011;10388;52.314;7.938;2024-03-22T00:00:29;20.20;;;16.17;;
20458;SDS011;10388;52.314;7.938;2024-03-22T00:02:59;20.70;;;16.13;;
20458;SDS011;10388;52.314;7.938;2024-03-22T00:05:30;21.53;;;17.80;;
20458;SDS011;10388;52.314;7.938;2024-03-22T00:08:01;21.63;;;17.40;;
20458;SDS011;10388;52.314;7.938;2024-03-22T00:10:31;21.90;;;16.80;;
20458;SDS011;10388;52.314;7.938;2024-03-22T00:13:02;20.20;;;16.90;;
20458;SDS011;10388;52.314;7.938;2024-03-22T00:15:32;21.80;;;16.60;;
20458;SDS011;10388;52.314;7.938;2024-03-22T00:18:03;23.03;;;18.53;;
20458;SDS011;10388;52.314;7.938;2024-03-22T00:20:34;22.43;;;17.17;;
20458;SDS011;10388;52.314;7.938;2024-03-22T00:23:04;20.47;;;16.80;;
20458;SDS011;10388;52.314;7.938;2024-03-22T00:25:35;22.80;;;17.83;;
20458;SDS011;10388;52.314;7.938;2024-03-22T00:28:05;21.23;;;17.03;;
20458;SDS011;10388;52.314;7.938;2024-03-22T00:30:36;23.27;;;18.10;;
20458;SDS011;10388;52.314;7.938;2024-03-22T00:33:06;22.57;;;17.33;;
20458;SDS011;10388;52.314;7.938;2024-03-22T00:35:37;23.77;;;17.80;;
20458;SDS011;10388;52.314;7.938;2024-03-22T00:38:07;23.27;;;17.27;;
20458;SDS011;10388;52.314;7.938;2024-03-22T00:40:38;24.27;;;18.70;;
20458;SDS011;10388;52.314;7.938;2024-03-22T00:43:08;23.93;;;18.10;;
20458;SDS011;10388;52.314;7.938;2024-03-22T00:45:39;22.17;;;17.83;;
20458;SDS011;10388;52.314;7.938;2024-03-22T00:48:10;23.30;;;18.40;;
20458;SDS011;10388;52.314;7.938;2024-03-22T00:50:40;23.43;;;18.23;;
20458;SDS011;10388;52.314;7.938;2024-03-22T00:53:11;25.63;;;19.07;;
20458;SDS011;10388;52.314;7.938;2024-03-22T00:55:42;23.70;;;18.93;;
20458;SDS011;10388;52.314;7.938;2024-03-22T00:58:13;24.47;;;18.70;;
20458;SDS011;10388;52.314;7.938;2024-03-22T01:00:44;26.33;;;19.40;;
20458;SDS011;10388;52.314;7.938;2024-03-22T01:03:14;25.17;;;19.23;;
20458;SDS011;10388;52.314;7.938;2024-03-22T01:05:45;25.87;;;19.73;;
20458;SDS011;10388;52.314;7.938;2024-03-22T01:08:16;24.83;;;19.30;;
20458;SDS011;10388;52.314;7.938;2024-03-22T01:10:47;26.23;;;19.30;;
20458;SDS011;10388;52.314;7.938;2024-03-22T01:13:17;27.17;;;20.60;;
20458;SDS011;10388;52.314;7.938;2024-03-22T01:15:48;24.90;;;19.37;;
20458;SDS011;10388;52.314;7.938;2024-03-22T01:18:18;24.87;;;18.33;;
20458;SDS011;10388;52.314;7.938;2024-03-22T01:20:49;28.13;;;20.13;;
20458;SDS011;10388;52.314;7.938;2024-03-22T01:23:19;26.63;;;20.13;;
20458;SDS011;10388;52.314;7.938;2024-03-22T01:25:50;25.33;;;19.27;;
20458;SDS011;10388;52.314;7.938;2024-03-22T01:28:20;24.57;;;19.30;;
20458;SDS011;10388;52.314;7.938;2024-03-22T01:33:29;25.97;;;20.07;;
20458;SDS011;10388;52.314;7.938;2024-03-22T01:36:00;25.80;;;19.67;;
20458;SDS011;10388;52.314;7.938;2024-03-22T01:38:31;29.30;;;19.50;;
20458;SDS011;10388;52.314;7.938;2024-03-22T01:41:02;26.03;;;20.43;;
20458;SDS011;10388;52.314;7.938;2024-03-22T01:43:32;26.10;;;20.33;;
20458;SDS011;10388;52.314;7.938;2024-03-22T01:46:04;26.73;;;20.07;;
20458;SDS011;10388;52.314;7.938;2024-03-22T01:48:35;26.47;;;19.83;;
20458;SDS011;10388;52.314;7.938;2024-03-22T01:51:06;29.17;;;20.53;;
20458;SDS011;10388;52.314;7.938;2024-03-22T01:53:38;26.73;;;20.63;;
20458;SDS011;10388;52.314;7.938;2024-03-22T01:56:09;26.60;;;20.70;;
20458;SDS011;10388;52.314;7.938;2024-03-22T01:58:40;25.70;;;19.97;;
20458;SDS011;10388;52.314;7.938;2024-03-22T02:01:12;25.77;;;19.17;;
20458;SDS011;10388;52.314;7.938;2024-03-22T02:03:42;27.50;;;20.43;;
20458;SDS011;10388;52.314;7.938;2024-03-22T02:06:13;31.10;;;20.90;;
20458;SDS011;10388;52.314;7.938;2024-03-22T02:08:44;26.70;;;20.47;;
20458;SDS011;10388;52.314;7.938;2024-03-22T02:11:15;30.40;;;20.57;;
20458;SDS011;10388;52.314;7.938;2024-03-22T02:13:46;26.90;;;19.73;;
20458;SDS011;10388;52.314;7.938;2024-03-22T02:16:17;29.20;;;20.27;;
20458;SDS011;10388;52.314;7.938;2024-03-22T02:18:47;28.03;;;19.93;;
20458;SDS011;10388;52.314;7.938;2024-03-22T02:21:19;30.57;;;20.77;;
20458;SDS011;10388;52.314;7.938;2024-03-22T02:23:50;27.87;;;20.97;;
20458;SDS011;10388;52.314;7.938;2024-03-22T02:26:20;28.93;;;20.47;;
20458;SDS011;10388;52.314;7.938;2024-03-22T02:28:51;28.60;;;19.43;;
20458;SDS011;10388;52.314;7.938;2024-03-22T02:31:22;30.83;;;21.73;;
20458;SDS011;10388;52.314;7.938;2024-03-22T02:33:52;32.47;;;21.33;;
20458;SDS011;10388;52.314;7.938;2024-03-22T02:36:23;29.97;;;20.30;;
20458;SDS011;10388;52.314;7.938;2024-03-22T02:38:53;30.77;;;20.40;;
20458;SDS011;10388;52.314;7.938;2024-03-22T02:41:24;32.40;;;20.17;;
20458;SDS011;10388;52.314;7.938;2024-03-22T02:43:55;32.13;;;21.50;;
20458;SDS011;10388;52.314;7.938;2024-03-22T02:46:25;29.47;;;20.03;;
20458;SDS011;10388;52.314;7.938;2024-03-22T02:48:56;29.97;;;20.83;;
20458;SDS011;10388;52.314;7.938;2024-03-22T02:51:27;29.93;;;19.80;;
20458;SDS011;10388;52.314;7.938;2024-03-22T02:53:57;29.80;;;20.63;;
20458;SDS011;10388;52.314;7.938;2024-03-22T02:56:28;29.03;;;19.83;;
20458;SDS011;10388;52.314;7.938;2024-03-22T02:58:59;29.67;;;20.07;;
20458;SDS011;10388;52.314;7.938;2024-03-22T03:01:29;32.00;;;21.47;;
20458;SDS011;10388;52.314;7.938;2024-03-22T03:04:00;34.23;;;21.70;;
20458;SDS011;10388;52.314;7.938;2024-03-22T03:06:30;32.37;;;21.10;;
20458;SDS011;10388;52.314;7.938;2024-03-22T03:09:01;32.40;;;21.47;;
20458;SDS011;10388;52.314;7.938;2024-03-22T03:11:39;31.10;;;20.67;;
20458;SDS011;10388;52.314;7.938;2024-03-22T03:14:09;33.03;;;21.70;;
20458;SDS011;10388;52.314;7.938;2024-03-22T03:16:40;32.90;;;20.67;;
20458;SDS011;10388;52.314;7.938;2024-03-22T03:19:11;34.40;;;22.27;;
20458;SDS011;10388;52.314;7.938;2024-03-22T03:21:41;32.93;;;21.30;;
20458;SDS011;10388;52.314;7.938;2024-03-22T03:24:12;34.40;;;22.13;;
20458;SDS011;10388;52.314;7.938;2024-03-22T03:26:43;32.87;;;20.60;;
20458;SDS011;10388;52.314;7.938;2024-03-22T03:29:13;35.33;;;21.33;;
20458;SDS011;10388;52.314;7.938;2024-03-22T03:31:44;30.87;;;21.70;;
20458;SDS011;10388;52.314;7.938;2024-03-22T03:34:15;31.13;;;20.37;;
20458;SDS011;10388;52.314;7.938;2024-03-22T03:36:46;33.03;;;21.60;;
20458;SDS011;10388;52.314;7.938;2024-03-22T03:39:17;35.20;;;21.03;;
20458;SDS011;10388;52.314;7.938;2024-03-22T03:41:47;32.93;;;20.40;;
20458;SDS011;10388;52.314;7.938;2024-03-22T03:44:18;36.10;;;21.13;;
20458;SDS011;10388;52.314;7.938;2024-03-22T03:46:48;33.43;;;21.73;;
20458;SDS011;10388;52.314;7.938;2024-03-22T03:49:19;35.23;;;21.27;;
20458;SDS011;10388;52.314;7.938;2024-03-22T03:51:50;36.63;;;20.87;;
20458;SDS011;10388;52.314;7.938;2024-03-22T03:54:20;33.40;;;21.80;;
20458;SDS011;10388;52.314;7.938;2024-03-22T03:56:51;36.20;;;22.17;;
20458;SDS011;10388;52.314;7.938;2024-03-22T03:59:22;36.07;;;22.23;;
20458;SDS011;10388;52.314;7.938;2024-03-22T04:01:53;31.83;;;21.70;;
20458;SDS011;10388;52.314;7.938;2024-03-22T04:04:23;34.07;;;22.10;;
20458;SDS011;10388;52.314;7.938;2024-03-22T04:06:54;35.57;;;21.27;;
20458;SDS011;10388;52.314;7.938;2024-03-22T04:09:25;33.90;;;21.27;;
20458;SDS011;10388;52.314;7.938;2024-03-22T04:11:55;30.50;;;20.23;;
20458;SDS011;10388;52.314;7.938;2024-03-22T04:14:28;35.47;;;21.07;;
20458;SDS011;10388;52.314;7.938;2024-03-22T04:16:59;33.80;;;20.97;;
20458;SDS011;10388;52.314;7.938;2024-03-22T04:19:30;32.40;;;20.23;;
20458;SDS011;10388;52.314;7.938;2024-03-22T04:22:00;34.80;;;21.40;;
20458;SDS011;10388;52.314;7.938;2024-03-22T04:24:31;30.50;;;21.47;;
20458;SDS011;10388;52.314;7.938;2024-03-22T04:27:01;33.70;;;21.53;;
20458;SDS011;10388;52.314;7.938;2024-03-22T04:29:32;32.03;;;21.07;;
20458;SDS011;10388;52.314;7.938;2024-03-22T04:32:03;32.10;;;20.53;;
20458;SDS011;10388;52.314;7.938;2024-03-22T04:34:34;34.97;;;22.07;;
20458;SDS011;10388;52.314;7.938;2024-03-22T04:37:04;34.13;;;20.83;;
20458;SDS011;10388;52.314;7.938;2024-03-22T04:39:36;33.03;;;21.17;;
20458;SDS011;10388;52.314;7.938;2024-03-22T04:42:07;31.67;;;20.67;;
20458;SDS011;10388;52.314;7.938;2024-03-22T04:44:38;32.23;;;21.37;;
20458;SDS011;10388;52.314;7.938;2024-03-22T04:47:09;32.10;;;20.63;;
20458;SDS011;10388;52.314;7.938;2024-03-22T04:49:39;30.43;;;19.80;;
20458;SDS011;10388;52.314;7.938;2024-03-22T04:52:11;34.90;;;21.73;;
20458;SDS011;10388;52.314;7.938;2024-03-22T04:54:41;33.17;;;19.87;;
20458;SDS011;10388;52.314;7.938;2024-03-22T04:57:12;31.47;;;20.57;;
20458;SDS011;10388;52.314;7.938;2024-03-22T04:59:43;30.87;;;18.90;;
20458;SDS011;10388;52.314;7.938;2024-03-22T05:02:13;34.37;;;20.03;;
20458;SDS011;10388;52.314;7.938;2024-03-22T05:04:44;30.43;;;20.20;;
20458;SDS011;10388;52.314;7.938;2024-03-22T05:07:14;30.57;;;19.93;;
20458;SDS011;10388;52.314;7.938;2024-03-22T05:09:45;30.40;;;19.80;;
20458;SDS011;10388;52.314;7.938;2024-03-22T05:12:16;33.33;;;19.67;;
20458;SDS011;10388;52.314;7.938;2024-03-22T05:14:46;33.73;;;19.83;;
20458;SDS011;10388;52.314;7.938;2024-03-22T05:17:17;28.23;;;19.70;;
20458;SDS011;10388;52.314;7.938;2024-03-22T05:19:48;32.03;;;19.63;;
20458;SDS011;10388;52.314;7.938;2024-03-22T05:22:18;28.30;;;19.63;;
20458;SDS011;10388;52.314;7.938;2024-03-22T05:24:50;32.57;;;20.07;;
20458;SDS011;10388;52.314;7.938;2024-03-22T05:27:21;29.47;;;18.87;;
20458;SDS011;10388;52.314;7.938;2024-03-22T05:29:52;29.97;;;19.23;;
20458;SDS011;10388;52.314;7.938;2024-03-22T05:32:22;32.80;;;19.53;;
20458;SDS011;10388;52.314;7.938;2024-03-22T05:34:53;31.43;;;20.07;;
20458;SDS011;10388;52.314;7.938;2024-03-22T05:37:24;32.70;;;19.37;;
20458;SDS011;10388;52.314;7.938;2024-03-22T05:39:54;32.63;;;20.30;;
20458;SDS011;10388;52.314;7.938;2024-03-22T05:42:25;31.97;;;19.73;;
20458;SDS011;10388;52.314;7.938;2024-03-22T05:44:56;31.23;;;19.77;;
20458;SDS011;10388;52.314;7.938;2024-03-22T05:47:26;32.70;;;19.57;;
20458;SDS011;10388;52.314;7.938;2024-03-22T05:49:58;32.57;;;20.13;;
20458;SDS011;10388;52.314;7.938;2024-03-22T05:52:29;34.57;;;20.63;;
20458;SDS011;10388;52.314;7.938;2024-03-22T05:54:59;34.43;;;20.23;;
20458;SDS011;10388;52.314;7.938;2024-03-22T05:57:32;29.43;;;19.03;;
20458;SDS011;10388;52.314;7.938;2024-03-22T06:00:03;34.43;;;20.77;;
20458;SDS011;10388;52.314;7.938;2024-03-22T06:02:37;30.47;;;19.33;;
20458;SDS011;10388;52.314;7.938;2024-03-22T06:05:07;29.10;;;18.47;;
20458;SDS011;10388;52.314;7.938;2024-03-22T06:07:38;26.90;;;17.57;;
20458;SDS011;10388;52.314;7.938;2024-03-22T06:10:12;31.90;;;19.67;;
20458;SDS011;10388;52.314;7.938;2024-03-22T06:12:42;27.70;;;18.80;;
20458;SDS011;10388;52.314;7.938;2024-03-22T06:15:14;29.33;;;18.77;;
20458;SDS011;10388;52.314;7.938;2024-03-22T06:17:45;30.00;;;19.60;;
20458;SDS011;10388;52.314;7.938;2024-03-22T06:20:16;27.43;;;17.70;;
20458;SDS011;10388;52.314;7.938;2024-03-22T06:22:49;30.57;;;18.70;;
20458;SDS011;10388;52.314;7.938;2024-03-22T06:25:19;30.87;;;18.90;;
20458;SDS011;10388;52.314;7.938;2024-03-22T06:27:50;30.37;;;19.40;;
20458;SDS011;10388;52.314;7.938;2024-03-22T06:30:20;31.87;;;18.57;;
20458;SDS011;10388;52.314;7.938;2024-03-22T06:32:51;26.10;;;17.90;;
20458;SDS011;10388;52.314;7.938;2024-03-22T06:35:22;26.70;;;17.73;;
20458;SDS011;10388;52.314;7.938;2024-03-22T06:37:53;27.87;;;19.13;;
20458;SDS011;10388;52.314;7.938;2024-03-22T06:40:23;30.37;;;19.17;;
20458;SDS011;10388;52.314;7.938;2024-03-22T06:42:54;28.83;;;18.30;;
20458;SDS011;10388;52.314;7.938;2024-03-22T06:45:24;27.07;;;18.77;;
20458;SDS011;10388;52.314;7.938;2024-03-22T06:47:55;28.47;;;18.63;;
20458;SDS011;10388;52.314;7.938;2024-03-22T06:50:26;28.47;;;17.80;;
20458;SDS011;10388;52.314;7.938;2024-03-22T06:52:57;28.53;;;17.63;;
20458;SDS011;10388;52.314;7.938;2024-03-22T06:55:27;28.30;;;18.73;;
20458;SDS011;10388;52.314;7.938;2024-03-22T06:57:58;25.80;;;18.13;;
20458;SDS011;10388;52.314;7.938;2024-03-22T07:00:29;27.47;;;19.47;;
20458;SDS011;10388;52.314;7.938;2024-03-22T07:03:03;27.97;;;18.73;;
20458;SDS011;10388;52.314;7.938;2024-03-22T07:05:37;28.97;;;18.80;;
20458;SDS011;10388;52.314;7.938;2024-03-22T07:08:07;26.67;;;18.57;;
20458;SDS011;10388;52.314;7.938;2024-03-22T07:10:39;26.07;;;18.77;;
20458;SDS011;10388;52.314;7.938;2024-03-22T07:13:10;27.97;;;18.67;;
20458;SDS011;10388;52.314;7.938;2024-03-22T07:15:40;25.77;;;18.13;;
20458;SDS011;10388;52.314;7.938;2024-03-22T07:18:11;27.13;;;18.73;;
20458;SDS011;10388;52.314;7.938;2024-03-22T07:20:42;27.20;;;18.57;;
20458;SDS011;10388;52.314;7.938;2024-03-22T07:23:12;27.30;;;19.27;;
20458;SDS011;10388;52.314;7.938;2024-03-22T07:25:46;27.50;;;18.97;;
20458;SDS011;10388;52.314;7.938;2024-03-22T07:28:18;27.90;;;19.50;;
20458;SDS011;10388;52.314;7.938;2024-03-22T07:30:51;25.00;;;17.70;;
20458;SDS011;10388;52.314;7.938;2024-03-22T07:33:22;25.07;;;18.80;;
20458;SDS011;10388;52.314;7.938;2024-03-22T07:35:52;26.97;;;19.50;;
20458;SDS011;10388;52.314;7.938;2024-03-22T07:38:24;25.53;;;18.37;;
20458;SDS011;10388;52.314;7.938;2024-03-22T07:40:55;24.90;;;18.30;;
20458;SDS011;10388;52.314;7.938;2024-03-22T07:43:25;23.37;;;17.47;;
20458;SDS011;10388;52.314;7.938;2024-03-22T07:45:56;25.63;;;18.40;;
20458;SDS011;10388;52.314;7.938;2024-03-22T07:48:26;25.90;;;18.70;;
20458;SDS011;10388;52.314;7.938;2024-03-22T07:50:57;24.77;;;18.37;;
20458;SDS011;10388;52.314;7.938;2024-03-22T07:53:28;23.23;;;18.33;;
20458;SDS011;10388;52.314;7.938;2024-03-22T07:55:59;25.90;;;18.47;;
20458;SDS011;10388;52.314;7.938;2024-03-22T07:58:30;23.87;;;17.27;;
20458;SDS011;10388;52.314;7.938;2024-03-22T08:01:01;27.90;;;20.20;;
20458;SDS011;10388;52.314;7.938;2024-03-22T08:03:32;23.67;;;17.10;;
20458;SDS011;10388;52.314;7.938;2024-03-22T08:06:03;23.17;;;17.43;;
20458;SDS011;10388;52.314;7.938;2024-03-22T08:08:33;25.93;;;18.33;;
20458;SDS011;10388;52.314;7.938;2024-03-22T08:11:04;20.60;;;16.60;;
20458;SDS011;10388;52.314;7.938;2024-03-22T08:13:35;22.10;;;17.40;;
20458;SDS011;10388;52.314;7.938;2024-03-22T08:16:05;24.07;;;17.57;;
20458;SDS011;10388;52.314;7.938;2024-03-22T08:18:36;21.63;;;17.10;;
20458;SDS011;10388;52.314;7.938;2024-03-22T08:21:07;23.27;;;16.63;;
20458;SDS011;10388;52.314;7.938;2024-03-22T08:23:39;22.57;;;16.90;;
20458;SDS011;10388;52.314;7.938;2024-03-22T08:26:10;21.47;;;16.53;;
20458;SDS011;10388;52.314;7.938;2024-03-22T08:28:40;22.40;;;17.03;;
20458;SDS011;10388;52.314;7.938;2024-03-22T08:31:11;21.27;;;17.23;;
20458;SDS011;10388;52.314;7.938;2024-03-22T08:33:41;23.20;;;17.70;;
20458;SDS011;10388;52.314;7.938;2024-03-22T08:36:12;22.33;;;17.20;;
20458;SDS011;10388;52.314;7.938;2024-03-22T08:38:43;23.33;;;17.80;;
20458;SDS011;10388;52.314;7.938;2024-03-22T08:41:13;21.27;;;17.03;;
20458;SDS011;10388;52.314;7.938;2024-03-22T08:43:44;19.97;;;16.20;;
20458;SDS011;10388;52.314;7.938;2024-03-22T08:46:15;22.40;;;17.33;;
20458;SDS011;10388;52.314;7.938;2024-03-22T08:48:46;21.60;;;16.67;;
20458;SDS011;10388;52.314;7.938;2024-03-22T08:51:16;20.13;;;16.47;;
20458;SDS011;10388;52.314;7.938;2024-03-22T08:53:47;22.07;;;17.57;;
20458;SDS011;10388;52.314;7.938;2024-03-22T08:56:17;21.57;;;16.33;;
20458;SDS011;10388;52.314;7.938;2024-03-22T08:58:48;21.73;;;17.63;;
20458;SDS011;10388;52.314;7.938;2024-03-22T09:01:19;19.63;;;15.83;;
20458;SDS011;10388;52.314;7.938;2024-03-22T09:03:50;22.20;;;16.23;;
20458;SDS011;10388;52.314;7.938;2024-03-22T09:06:21;19.93;;;15.90;;
20458;SDS011;10388;52.314;7.938;2024-03-22T09:08:51;19.60;;;15.73;;
20458;SDS011;10388;52.314;7.938;2024-03-22T09:11:25;21.20;;;16.63;;
20458;SDS011;10388;52.314;7.938;2024-03-22T09:13:55;20.17;;;16.07;;
20458;SDS011;10388;52.314;7.938;2024-03-22T09:16:26;21.90;;;15.97;;
20458;SDS011;10388;52.314;7.938;2024-03-22T09:18:56;18.93;;;16.03;;
20458;SDS011;10388;52.314;7.938;2024-03-22T09:21:28;19.37;;;15.30;;
20458;SDS011;10388;52.314;7.938;2024-03-22T09:23:58;18.87;;;15.23;;
20458;SDS011;10388;52.314;7.938;2024-03-22T09:26:29;18.67;;;15.90;;
20458;SDS011;10388;52.314;7.938;2024-03-22T09:28:59;19.17;;;15.50;;
20458;SDS011;10388;52.314;7.938;2024-03-22T09:31:31;17.27;;;15.13;;
20458;SDS011;10388;52.314;7.938;2024-03-22T09:34:03;19.27;;;14.97;;
20458;SDS011;10388;52.314;7.938;2024-03-22T09:36:33;20.30;;;15.53;;
20458;SDS011;10388;52.314;7.938;2024-03-22T09:39:05;18.93;;;14.67;;
20458;SDS011;10388;52.314;7.938;2024-03-22T09:41:40;17.70;;;13.70;;
20458;SDS011;10388;52.314;7.938;2024-03-22T09:44:13;18.43;;;15.27;;
20458;SDS011;10388;52.314;7.938;2024-03-22T09:46:47;20.93;;;14.83;;
20458;SDS011;10388;52.314;7.938;2024-03-22T09:49:18;40.60;;;17.60;;
20458;SDS011;10388;52.314;7.938;2024-03-22T09:51:49;69.30;;;23.73;;
20458;SDS011;10388;52.314;7.938;2024-03-22T09:54:23;54.67;;;20.23;;
20458;SDS011;10388;52.314;7.938;2024-03-22T09:56:55;17.67;;;14.73;;
20458;SDS011;10388;52.314;7.938;2024-03-22T09:59:27;19.17;;;14.13;;
20458;SDS011;10388;52.314;7.938;2024-03-22T10:01:58;16.40;;;14.00;;
20458;SDS011;10388;52.314;7.938;2024-03-22T10:04:30;16.77;;;13.30;;
20458;SDS011;10388;52.314;7.938;2024-03-22T10:07:00;18.97;;;13.87;;
20458;SDS011;10388;52.314;7.938;2024-03-22T10:09:32;16.10;;;14.37;;
20458;SDS011;10388;52.314;7.938;2024-03-22T10:12:03;18.27;;;14.23;;
20458;SDS011;10388;52.314;7.938;2024-03-22T10:14:34;18.33;;;13.90;;
20458;SDS011;10388;52.314;7.938;2024-03-22T10:17:06;17.00;;;13.53;;
20458;SDS011;10388;52.314;7.938;2024-03-22T10:19:38;17.40;;;13.37;;
20458;SDS011;10388;52.314;7.938;2024-03-22T10:22:10;16.47;;;13.27;;
20458;SDS011;10388;52.314;7.938;2024-03-22T10:24:41;16.50;;;13.40;;
20458;SDS011;10388;52.314;7.938;2024-03-22T10:27:11;17.60;;;14.30;;
20458;SDS011;10388;52.314;7.938;2024-03-22T10:29:42;16.77;;;13.33;;
20458;SDS011;10388;52.314;7.938;2024-03-22T10:32:13;14.87;;;11.63;;
20458;SDS011;10388;52.314;7.938;2024-03-22T10:34:44;33.93;;;13.73;;
20458;SDS011;10388;52.314;7.938;2024-03-22T10:37:16;85.23;;;22.53;;
20458;SDS011;10388;52.314;7.938;2024-03-22T10:39:47;47.80;;;15.77;;
20458;SDS011;10388;52.314;7.938;2024-03-22T10:42:20;17.73;;;12.03;;
20458;SDS011;10388;52.314;7.938;2024-03-22T10:44:51;16.43;;;11.40;;
20458;SDS011;10388;52.314;7.938;2024-03-22T10:47:22;16.40;;;11.13;;
20458;SDS011;10388;52.314;7.938;2024-03-22T10:53:00;42.73;;;17.30;;
20458;SDS011;10388;52.314;7.938;2024-03-22T10:55:34;15.03;;;11.47;;
20458;SDS011;10388;52.314;7.938;2024-03-22T10:58:14;25.10;;;12.97;;
20458;SDS011;10388;52.314;7.938;2024-03-22T11:00:54;17.37;;;11.57;;
20458;SDS011;10388;52.314;7.938;2024-03-22T11:03:26;22.90;;;13.83;;
20458;SDS011;10388;52.314;7.938;2024-03-22T11:05:58;19.30;;;13.03;;
20458;SDS011;10388;52.314;7.938;2024-03-22T11:08:29;17.50;;;13.73;;
20458;SDS011;10388;52.314;7.938;2024-03-22T11:11:08;16.07;;;12.03;;
20458;SDS011;10388;52.314;7.938;2024-03-22T11:13:40;18.13;;;13.00;;
20458;SDS011;10388;52.314;7.938;2024-03-22T11:16:11;16.03;;;12.27;;
20458;SDS011;10388;52.314;7.938;2024-03-22T11:18:42;17.77;;;12.43;;
20458;SDS011;10388;52.314;7.938;2024-03-22T11:21:12;17.10;;;12.90;;
20458;SDS011;10388;52.314;7.938;2024-03-22T11:23:46;19.60;;;12.83;;
20458;SDS011;10388;52.314;7.938;2024-03-22T11:26:17;17.67;;;11.93;;
20458;SDS011;10388;52.314;7.938;2024-03-22T11:28:49;16.17;;;12.40;;
20458;SDS011;10388;52.314;7.938;2024-03-22T11:31:19;19.57;;;12.87;;
20458;SDS011;10388;52.314;7.938;2024-03-22T11:33:55;16.27;;;12.50;;
20458;SDS011;10388;52.314;7.938;2024-03-22T11:36:29;19.17;;;12.87;;
20458;SDS011;10388;52.314;7.938;2024-03-22T11:39:00;15.47;;;11.37;;
20458;SDS011;10388;52.314;7.938;2024-03-22T11:41:30;14.70;;;11.60;;
20458;SDS011;10388;52.314;7.938;2024-03-22T11:44:02;15.10;;;11.60;;
20458;SDS011;10388;52.314;7.938;2024-03-22T11:46:32;15.10;;;11.37;;
20458;SDS011;10388;52.314;7.938;2024-03-22T11:49:03;14.70;;;11.60;;
20458;SDS011;10388;52.314;7.938;2024-03-22T11:51:34;14.73;;;11.80;;
20458;SDS011;10388;52.314;7.938;2024-03-22T11:54:05;14.73;;;11.50;;
20458;SDS011;10388;52.314;7.938;2024-03-22T11:56:39;15.77;;;11.53;;
20458;SDS011;10388;52.314;7.938;2024-03-22T11:59:10;14.17;;;11.80;;
20458;SDS011;10388;52.314;7.938;2024-03-22T12:01:41;14.50;;;11.50;;
20458;SDS011;10388;52.314;7.938;2024-03-22T12:04:11;15.13;;;11.63;;
20458;SDS011;10388;52.314;7.938;2024-03-22T12:06:45;15.40;;;11.30;;
20458;SDS011;10388;52.314;7.938;2024-03-22T12:09:15;15.80;;;11.23;;
20458;SDS011;10388;52.314;7.938;2024-03-22T12:11:46;14.70;;;11.20;;
20458;SDS011;10388;52.314;7.938;2024-03-22T12:14:16;13.57;;;10.77;;
20458;SDS011;10388;52.314;7.938;2024-03-22T12:16:47;15.63;;;12.80;;
20458;SDS011;10388;52.314;7.938;2024-03-22T12:19:17;15.93;;;11.13;;
20458;SDS011;10388;52.314;7.938;2024-03-22T12:21:48;14.07;;;11.60;;
20458;SDS011;10388;52.314;7.938;2024-03-22T12:24:18;14.10;;;10.80;;
20458;SDS011;10388;52.314;7.938;2024-03-22T12:26:49;14.93;;;11.07;;
20458;SDS011;10388;52.314;7.938;2024-03-22T12:29:20;14.93;;;10.57;;
20458;SDS011;10388;52.314;7.938;2024-03-22T12:31:51;15.07;;;10.07;;
20458;SDS011;10388;52.314;7.938;2024-03-22T12:34:22;19.63;;;11.30;;
20458;SDS011;10388;52.314;7.938;2024-03-22T12:36:52;23.23;;;11.20;;
20458;SDS011;10388;52.314;7.938;2024-03-22T12:39:23;15.93;;;10.43;;
20458;SDS011;10388;52.314;7.938;2024-03-22T12:41:53;14.17;;;10.50;;
20458;SDS011;10388;52.314;7.938;2024-03-22T12:44:24;13.97;;;10.03;;
20458;SDS011;10388;52.314;7.938;2024-03-22T12:46:55;13.73;;;10.50;;
20458;SDS011;10388;52.314;7.938;2024-03-22T12:49:26;12.80;;;10.17;;
20458;SDS011;10388;52.314;7.938;2024-03-22T12:51:56;15.47;;;10.73;;
20458;SDS011;10388;52.314;7.938;2024-03-22T12:54:27;13.70;;;10.70;;
20458;SDS011;10388;52.314;7.938;2024-03-22T12:56:58;12.57;;;10.10;;
20458;SDS011;10388;52.314;7.938;2024-03-22T12:59:28;14.73;;;10.33;;
20458;SDS011;10388;52.314;7.938;2024-03-22T13:01:59;12.93;;;10.47;;
20458;SDS011;10388;52.314;7.938;2024-03-22T13:04:31;13.13;;;10.30;;
20458;SDS011;10388;52.314;7.938;2024-03-22T13:07:02;15.60;;;9.57;;
20458;SDS011;10388;52.314;7.938;2024-03-22T13:09:33;14.33;;;11.23;;
20458;SDS011;10388;52.314;7.938;2024-03-22T13:12:04;15.13;;;10.43;;
20458;SDS011;10388;52.314;7.938;2024-03-22T13:14:35;13.93;;;10.17;;
20458;SDS011;10388;52.314;7.938;2024-03-22T13:17:05;12.23;;;9.63;;
20458;SDS011;10388;52.314;7.938;2024-03-22T13:19:36;13.87;;;9.97;;
20458;SDS011;10388;52.314;7.938;2024-03-22T13:22:07;12.50;;;9.10;;
20458;SDS011;10388;52.314;7.938;2024-03-22T13:24:38;12.67;;;9.40;;
20458;SDS011;10388;52.314;7.938;2024-03-22T13:27:08;13.03;;;9.30;;
20458;SDS011;10388;52.314;7.938;2024-03-22T13:29:42;11.20;;;8.43;;
20458;SDS011;10388;52.314;7.938;2024-03-22T13:32:13;11.53;;;8.83;;
20458;SDS011;10388;52.314;7.938;2024-03-22T13:34:43;11.17;;;8.33;;
20458;SDS011;10388;52.314;7.938;2024-03-22T13:37:14;10.73;;;8.60;;
20458;SDS011;10388;52.314;7.938;2024-03-22T13:39:48;9.93;;;7.60;;
20458;SDS011;10388;52.314;7.938;2024-03-22T13:42:22;10.30;;;8.13;;
20458;SDS011;10388;52.314;7.938;2024-03-22T13:44:52;11.23;;;9.03;;
20458;SDS011;10388;52.314;7.938;2024-03-22T13:47:23;9.80;;;7.50;;
20458;SDS011;10388;52.314;7.938;2024-03-22T13:49:55;11.40;;;8.20;;
20458;SDS011;10388;52.314;7.938;2024-03-22T13:52:26;10.13;;;7.57;;
20458;SDS011;10388;52.314;7.938;2024-03-22T13:54:57;11.63;;;8.23;;
20458;SDS011;10388;52.314;7.938;2024-03-22T13:57:30;9.73;;;7.23;;
20458;SDS011;10388;52.314;7.938;2024-03-22T14:00:01;10.50;;;7.70;;
20458;SDS011;10388;52.314;7.938;2024-03-22T14:02:37;10.47;;;7.73;;
20458;SDS011;10388;52.314;7.938;2024-03-22T14:05:07;9.33;;;7.40;;
20458;SDS011;10388;52.314;7.938;2024-03-22T14:07:38;10.10;;;7.83;;
20458;SDS011;10388;52.314;7.938;2024-03-22T14:10:10;9.77;;;7.17;;
20458;SDS011;10388;52.314;7.938;2024-03-22T14:12:45;9.83;;;7.07;;
20458;SDS011;10388;52.314;7.938;2024-03-22T14:15:17;10.53;;;7.80;;
20458;SDS011;10388;52.314;7.938;2024-03-22T14:17:47;11.23;;;7.70;;
20458;SDS011;10388;52.314;7.938;2024-03-22T14:20:18;9.70;;;7.43;;
20458;SDS011;10388;52.314;7.938;2024-03-22T14:22:48;10.93;;;7.70;;
20458;SDS011;10388;52.314;7.938;2024-03-22T14:25:19;8.90;;;7.03;;
20458;SDS011;10388;52.314;7.938;2024-03-22T14:27:50;8.27;;;6.70;;
20458;SDS011;10388;52.314;7.938;2024-03-22T14:30:21;9.13;;;7.30;;
20458;SDS011;10388;52.314;7.938;2024-03-22T14:32:52;9.63;;;7.20;;
20458;SDS011;10388;52.314;7.938;2024-03-22T14:35:23;9.10;;;6.77;;
20458;SDS011;10388;52.314;7.938;2024-03-22T14:37:54;8.57;;;6.33;;
20458;SDS011;10388;52.314;7.938;2024-03-22T14:40:24;9.33;;;6.20;;
20458;SDS011;10388;52.314;7.938;2024-03-22T14:42:55;8.30;;;6.77;;
20458;SDS011;10388;52.314;7.938;2024-03-22T14:45:25;6.73;;;5.80;;
20458;SDS011;10388;52.314;7.938;2024-03-22T14:47:56;7.83;;;5.93;;
20458;SDS011;10388;52.314;7.938;2024-03-22T14:50:27;6.40;;;5.70;;